Time;durP1;ratioP1;P1;durP2;ratioP2;P2;SDS_P1;SDS_P2;PMS_P1;PMS_P2;Temp;Humidity;BMP_temperature;BMP_pressure;BME280_temperature;BME280_humidity;BME280_pressure;Samples;Min_cycle;Max_cycle;Signal;HPM_P1;HPM_P2
2021/08/15 00:00:38;;;;;;;26.67;18.70;;;18.10;83.40;;;;;;5053516;28;20045;-78
2021/08/15 00:03:04;;;;;;;26.33;17.08;;;18.10;83.50;;;;;;5073466;28;20062;-78
2021/08/15 00:05:30;;;;;;;30.08;17.98;;;18.10;83.70;;;;;;5048902;28;20113;-78
2021/08/15 00:07:56;;;;;;;27.10;16.80;;;18.00;83.80;;;;;;5036482;28;20538;-78
2021/08/15 00:10:22;;;;;;;23.33;16.10;;;18.00;83.90;;;;;;5049355;28;20032;-78
2021/08/15 00:12:48;;;;;;;28.05;16.75;;;18.00;84.00;;;;;;5070357;28;20032;-78
2021/08/15 00:15:15;;;;;;;23.23;16.05;;;18.00;84.10;;;;;;5044417;28;20029;-78
2021/08/15 00:17:41;;;;;;;29.73;16.80;;;17.90;84.20;;;;;;5072711;28;20025;-78
2021/08/15 00:20:08;;;;;;;25.48;16.95;;;17.90;84.30;;;;;;5060953;28;20055;-78
2021/08/15 00:22:39;;;;;;;23.52;17.15;;;17.90;84.40;;;;;;5038028;28;20029;-78
2021/08/15 00:25:09;;;;;;;26.25;15.32;;;17.80;84.30;;;;;;5040172;28;20127;-78
2021/08/15 00:27:35;;;;;;;25.02;15.27;;;17.80;84.40;;;;;;5109042;28;20072;-78
2021/08/15 00:30:02;;;;;;;26.58;16.00;;;17.80;84.50;;;;;;5091569;28;20031;-79
2021/08/15 00:32:28;;;;;;;28.73;17.00;;;17.80;84.60;;;;;;5081752;28;20059;-79
2021/08/15 00:34:53;;;;;;;27.67;17.05;;;17.80;84.60;;;;;;5085985;28;20055;-79
2021/08/15 00:37:19;;;;;;;26.65;16.60;;;17.70;84.60;;;;;;5095172;28;20090;-79
2021/08/15 00:39:44;;;;;;;22.77;15.38;;;17.70;84.70;;;;;;5064068;28;20476;-79
2021/08/15 00:42:10;;;;;;;26.60;14.98;;;17.70;84.80;;;;;;5051381;28;20028;-78
2021/08/15 00:44:36;;;;;;;25.45;16.77;;;17.70;85.00;;;;;;5075238;28;20086;-78
2021/08/15 00:47:02;;;;;;;26.25;17.17;;;17.60;85.00;;;;;;5075055;28;20036;-78
2021/08/15 00:49:28;;;;;;;24.88;15.55;;;17.60;85.20;;;;;;5064723;28;20451;-78
2021/08/15 00:51:54;;;;;;;24.20;16.50;;;17.50;85.20;;;;;;5081999;28;20024;-78
2021/08/15 00:54:20;;;;;;;22.08;15.40;;;17.50;85.20;;;;;;5095358;28;20512;-78
2021/08/15 00:56:50;;;;;;;23.90;15.32;;;17.50;85.20;;;;;;5090911;28;20040;-78
2021/08/15 00:59:18;;;;;;;21.25;14.85;;;17.50;85.40;;;;;;5098381;28;20028;-78
2021/08/15 01:01:43;;;;;;;23.33;16.52;;;17.50;85.40;;;;;;5093745;28;20382;-79
2021/08/15 01:04:09;;;;;;;26.90;16.38;;;17.50;85.40;;;;;;5076002;28;20028;-79
2021/08/15 01:06:35;;;;;;;20.13;14.10;;;17.40;85.40;;;;;;5074420;28;20028;-79
2021/08/15 01:09:05;;;;;;;24.33;15.35;;;17.40;85.50;;;;;;5076229;28;20025;-79
2021/08/15 01:11:32;;;;;;;28.98;16.52;;;17.40;85.60;;;;;;5088395;28;20037;-81
2021/08/15 01:14:06;;;;;;;24.58;15.90;;;17.40;85.80;;;;;;5066106;28;20032;-82
2021/08/15 01:16:42;;;;;;;26.85;16.35;;;17.30;85.90;;;;;;5051517;28;20388;-82
2021/08/15 01:19:09;;;;;;;24.70;15.88;;;17.30;86.00;;;;;;5079731;28;20028;-81
2021/08/15 01:21:37;;;;;;;25.65;16.15;;;17.30;85.90;;;;;;5073060;28;20039;-81
2021/08/15 01:24:04;;;;;;;23.50;15.77;;;17.30;85.90;;;;;;5082669;28;20036;-81
2021/08/15 01:26:30;;;;;;;24.25;15.68;;;17.30;85.90;;;;;;5087988;28;20497;-75
2021/08/15 01:28:56;;;;;;;31.52;15.93;;;17.30;86.00;;;;;;5096854;28;20161;-75
2021/08/15 01:31:23;;;;;;;23.75;16.00;;;17.30;86.10;;;;;;5106227;28;20094;-75
2021/08/15 01:33:49;;;;;;;22.83;15.27;;;17.30;86.10;;;;;;5078719;28;20028;-74
2021/08/15 01:36:18;;;;;;;31.85;16.17;;;17.20;86.30;;;;;;5071706;28;20521;-81
2021/08/15 01:38:45;;;;;;;24.92;14.85;;;17.20;86.30;;;;;;5074981;28;20024;-81
2021/08/15 01:41:11;;;;;;;27.33;15.95;;;17.20;86.40;;;;;;5090274;28;20840;-81
2021/08/15 01:43:58;;;;;;;26.25;15.82;;;17.10;86.30;;;;;;5074619;28;20039;-81
2021/08/15 01:46:29;;;;;;;22.55;15.63;;;17.10;86.40;;;;;;5060200;28;20427;-82
2021/08/15 01:48:55;;;;;;;18.65;14.00;;;17.10;86.30;;;;;;5063857;28;20043;-81
2021/08/15 01:51:21;;;;;;;25.65;14.60;;;17.10;86.50;;;;;;5068057;28;20471;-82
2021/08/15 01:53:50;;;;;;;26.73;15.55;;;17.10;86.60;;;;;;5081059;28;20028;-81
2021/08/15 01:56:16;;;;;;;24.55;14.93;;;17.10;86.80;;;;;;5063161;28;20388;-81
2021/08/15 01:58:42;;;;;;;25.05;15.60;;;17.00;86.80;;;;;;5101379;28;20485;-82
2021/08/15 02:01:08;;;;;;;29.60;15.93;;;17.00;86.90;;;;;;5081252;28;20069;-81
2021/08/15 02:03:36;;;;;;;25.33;14.43;;;17.00;86.90;;;;;;5090154;28;20082;-82
2021/08/15 02:06:02;;;;;;;22.23;15.10;;;17.00;86.90;;;;;;5082569;28;20028;-81
2021/08/15 02:08:28;;;;;;;23.63;15.77;;;16.90;86.70;;;;;;5084808;28;20527;-82
2021/08/15 02:10:53;;;;;;;21.25;14.95;;;16.90;86.80;;;;;;5094924;28;20384;-79
2021/08/15 02:13:19;;;;;;;19.95;14.68;;;16.90;86.90;;;;;;5069386;28;20032;-78
2021/08/15 02:15:44;;;;;;;23.42;15.57;;;16.90;86.90;;;;;;5073899;28;20040;-78
2021/08/15 02:18:10;;;;;;;23.23;14.63;;;16.90;87.00;;;;;;5092204;28;20495;-78
2021/08/15 02:20:37;;;;;;;21.83;14.20;;;16.90;87.20;;;;;;5089265;28;20023;-78
2021/08/15 02:23:03;;;;;;;23.77;15.50;;;16.90;87.20;;;;;;5058781;28;20029;-75
2021/08/15 02:25:29;;;;;;;25.83;15.25;;;16.90;87.20;;;;;;5067193;28;20048;-75
2021/08/15 02:27:55;;;;;;;23.58;15.00;;;16.90;87.20;;;;;;5059513;28;20086;-81
2021/08/15 02:30:23;;;;;;;22.73;14.68;;;16.90;87.20;;;;;;5037966;28;20025;-82
2021/08/15 02:32:49;;;;;;;22.10;14.90;;;16.90;87.20;;;;;;5040602;28;20078;-81
2021/08/15 02:35:15;;;;;;;23.83;15.45;;;16.80;87.10;;;;;;5055952;28;20033;-81
2021/08/15 02:37:43;;;;;;;21.52;14.43;;;16.80;87.10;;;;;;5050359;28;20017;-81
2021/08/15 02:40:10;;;;;;;21.58;15.88;;;16.80;87.20;;;;;;5046170;28;20554;-82
2021/08/15 02:42:40;;;;;;;20.75;14.40;;;16.80;87.20;;;;;;5049695;28;20086;-81
2021/08/15 02:45:08;;;;;;;22.70;14.90;;;16.70;87.30;;;;;;5041432;28;20032;-81
2021/08/15 02:47:34;;;;;;;22.42;15.60;;;16.70;87.30;;;;;;5046797;28;20024;-81
2021/08/15 02:50:00;;;;;;;22.05;14.38;;;16.70;87.40;;;;;;5052438;28;20090;-81
2021/08/15 02:52:26;;;;;;;25.52;13.90;;;16.70;87.40;;;;;;5048814;28;20477;-81
2021/08/15 02:54:51;;;;;;;25.67;15.50;;;16.60;87.50;;;;;;5051338;28;20452;-81
2021/08/15 02:57:17;;;;;;;21.13;14.25;;;16.60;87.70;;;;;;5062783;28;20040;-81
2021/08/15 02:59:43;;;;;;;23.85;14.90;;;16.60;87.70;;;;;;5054321;28;20473;-81
2021/08/15 03:02:10;;;;;;;20.38;13.10;;;16.60;87.70;;;;;;5051740;28;20029;-81
2021/08/15 03:04:35;;;;;;;18.23;13.88;;;16.60;87.70;;;;;;5059791;28;20043;-81
2021/08/15 03:07:02;;;;;;;22.55;15.68;;;16.60;87.80;;;;;;5047328;28;20380;-81
2021/08/15 03:09:27;;;;;;;30.95;15.30;;;16.60;87.70;;;;;;5047926;28;20041;-81
2021/08/15 03:11:53;;;;;;;19.60;13.70;;;16.60;87.70;;;;;;5032093;28;20084;-81
2021/08/15 03:14:18;;;;;;;20.50;14.15;;;16.50;87.80;;;;;;5049454;28;20037;-81
2021/08/15 03:16:44;;;;;;;24.27;14.38;;;16.50;87.80;;;;;;5047600;28;20097;-81
2021/08/15 03:19:10;;;;;;;25.70;14.82;;;16.50;87.90;;;;;;5037752;28;20463;-81
2021/08/15 03:21:35;;;;;;;24.92;14.52;;;16.50;88.10;;;;;;5044479;28;20532;-81
2021/08/15 03:24:02;;;;;;;21.77;14.48;;;16.50;88.10;;;;;;5052716;28;20078;-81
2021/08/15 03:26:28;;;;;;;19.10;13.27;;;16.40;88.20;;;;;;5094909;28;20519;-81
2021/08/15 03:28:53;;;;;;;19.23;14.00;;;16.40;88.20;;;;;;5082383;28;20032;-81
2021/08/15 03:31:19;;;;;;;21.92;13.70;;;16.40;88.20;;;;;;5070143;28;20027;-80
2021/08/15 03:33:45;;;;;;;26.08;14.50;;;16.40;88.20;;;;;;5090142;28;20029;-81
2021/08/15 03:36:11;;;;;;;24.63;12.98;;;16.40;88.20;;;;;;5109551;28;20046;-81
2021/08/15 03:38:36;;;;;;;22.50;13.05;;;16.40;88.30;;;;;;5086029;28;20035;-81
2021/08/15 03:41:02;;;;;;;19.83;12.80;;;16.40;88.30;;;;;;5069675;28;20033;-81
2021/08/15 03:43:27;;;;;;;22.15;13.95;;;16.40;88.90;;;;;;5074610;28;20051;-81
2021/08/15 03:45:53;;;;;;;17.35;12.20;;;16.40;88.40;;;;;;5079147;28;20036;-81
2021/08/15 03:48:18;;;;;;;18.73;12.63;;;16.40;88.50;;;;;;5062140;28;20028;-81
2021/08/15 03:50:44;;;;;;;17.30;11.43;;;16.40;88.50;;;;;;5093301;28;20107;-81
2021/08/15 03:53:10;;;;;;;17.27;11.73;;;16.40;88.50;;;;;;5081065;28;20407;-81
2021/08/15 03:55:35;;;;;;;18.33;11.90;;;16.30;88.40;;;;;;5063361;28;20499;-81
2021/08/15 03:58:01;;;;;;;16.63;11.48;;;16.30;88.50;;;;;;5077536;28;20029;-79
2021/08/15 04:00:27;;;;;;;19.20;11.77;;;16.30;88.50;;;;;;5060947;28;20029;-78
2021/08/15 04:02:53;;;;;;;21.20;12.60;;;16.30;88.60;;;;;;5059455;28;20033;-78
2021/08/15 04:05:19;;;;;;;20.00;12.30;;;16.30;88.70;;;;;;5092337;28;20047;-78
2021/08/15 04:07:44;;;;;;;19.98;12.73;;;16.30;88.70;;;;;;5073645;28;20481;-78
2021/08/15 04:10:10;;;;;;;17.10;11.23;;;16.30;88.50;;;;;;5075795;28;20028;-78
2021/08/15 04:12:36;;;;;;;16.02;10.68;;;16.20;88.60;;;;;;5062480;28;20036;-78
2021/08/15 04:15:02;;;;;;;17.25;11.65;;;16.20;88.80;;;;;;5080873;28;20055;-79
2021/08/15 04:17:28;;;;;;;19.08;11.35;;;16.20;88.90;;;;;;5068455;28;20500;-79
2021/08/15 04:19:54;;;;;;;17.50;10.82;;;16.20;88.90;;;;;;5077917;28;20028;-79
2021/08/15 04:22:19;;;;;;;19.02;10.70;;;16.20;88.90;;;;;;5058592;28;20017;-78
2021/08/15 04:24:45;;;;;;;16.52;11.75;;;16.10;89.00;;;;;;5078233;28;20102;-78
2021/08/15 04:27:11;;;;;;;23.23;12.38;;;16.10;89.20;;;;;;5078380;28;20147;-78
2021/08/15 04:29:39;;;;;;;23.73;13.55;;;16.10;89.20;;;;;;5081757;28;20112;-78
2021/08/15 04:32:06;;;;;;;24.55;13.18;;;16.10;89.10;;;;;;5072821;28;20111;-78
2021/08/15 04:34:32;;;;;;;17.77;11.55;;;16.10;89.10;;;;;;5089045;28;20040;-78
2021/08/15 04:36:58;;;;;;;18.38;10.75;;;16.10;89.20;;;;;;5057817;28;20427;-78
2021/08/15 04:39:24;;;;;;;17.35;10.80;;;16.10;89.20;;;;;;5063677;28;20085;-78
2021/08/15 04:41:49;;;;;;;18.98;11.48;;;16.20;89.30;;;;;;5080623;28;20050;-78
2021/08/15 04:44:15;;;;;;;19.33;11.02;;;16.10;89.30;;;;;;5095015;28;20035;-78
2021/08/15 04:46:40;;;;;;;19.85;11.90;;;16.20;89.50;;;;;;5063671;28;20488;-78
2021/08/15 04:49:06;;;;;;;23.30;13.27;;;16.20;89.50;;;;;;5074722;28;20035;-78
2021/08/15 04:51:31;;;;;;;23.42;11.95;;;16.20;89.50;;;;;;5080009;28;20032;-78
2021/08/15 04:53:57;;;;;;;17.83;11.68;;;16.20;89.60;;;;;;5105600;28;20053;-79
2021/08/15 04:56:23;;;;;;;19.55;12.05;;;16.20;89.60;;;;;;5074819;28;20036;-79
2021/08/15 04:58:48;;;;;;;20.20;12.52;;;16.30;89.70;;;;;;5048968;28;20044;-79
2021/08/15 05:01:14;;;;;;;20.70;12.75;;;16.30;89.80;;;;;;5076491;28;20485;-79
2021/08/15 05:03:40;;;;;;;19.90;12.55;;;16.30;89.80;;;;;;5069257;28;20035;-79
2021/08/15 05:06:05;;;;;;;22.38;10.73;;;16.40;89.90;;;;;;5060001;28;20189;-79
2021/08/15 05:08:32;;;;;;;17.83;11.35;;;16.40;89.90;;;;;;5068140;28;20550;-78
2021/08/15 05:10:58;;;;;;;19.92;11.60;;;16.40;90.00;;;;;;5094125;28;20385;-78
2021/08/15 05:13:27;;;;;;;18.23;11.50;;;16.50;90.00;;;;;;5075426;28;20031;-78
2021/08/15 05:15:53;;;;;;;;;;;16.50;90.00;;;;;;5087877;28;20508;-79
2021/08/15 05:18:19;;;;;;;20.17;10.73;;;16.60;89.70;;;;;;5106694;28;19912;-79
2021/08/15 05:20:44;;;;;;;16.15;10.70;;;16.60;89.90;;;;;;5095186;28;20088;-79
2021/08/15 05:23:10;;;;;;;18.42;11.30;;;16.70;90.00;;;;;;5090706;28;20112;-79
2021/08/15 05:25:36;;;;;;;19.10;11.35;;;16.80;90.00;;;;;;5076117;28;20371;-79
2021/08/15 05:28:03;;;;;;;18.35;10.30;;;16.80;90.00;;;;;;5068861;28;20017;-79
2021/08/15 05:30:29;;;;;;;19.33;10.70;;;16.90;90.00;;;;;;5057520;28;20014;-79
2021/08/15 05:32:54;;;;;;;19.60;10.57;;;16.90;90.00;;;;;;5064753;28;20032;-79
2021/08/15 05:35:20;;;;;;;19.08;11.50;;;17.00;90.00;;;;;;5068635;28;20032;-79
2021/08/15 05:37:46;;;;;;;17.42;10.43;;;17.00;90.00;;;;;;5063687;28;20025;-79
2021/08/15 05:40:12;;;;;;;19.45;11.30;;;17.10;90.00;;;;;;5060720;28;20028;-79
2021/08/15 05:42:37;;;;;;;18.05;10.95;;;17.10;90.00;;;;;;5068699;28;20024;-79
2021/08/15 05:45:04;;;;;;;21.27;10.80;;;17.20;90.00;;;;;;5061736;28;20031;-79
2021/08/15 05:47:29;;;;;;;15.43;10.02;;;17.30;90.00;;;;;;5060580;28;20025;-82
2021/08/15 05:49:55;;;;;;;19.45;11.02;;;17.30;89.90;;;;;;5062115;28;20135;-82
2021/08/15 05:52:20;;;;;;;16.27;9.93;;;17.40;89.80;;;;;;5071376;28;20393;-82
2021/08/15 05:54:46;;;;;;;19.73;10.60;;;17.50;89.80;;;;;;5053000;28;20151;-82
2021/08/15 05:57:12;;;;;;;21.25;11.10;;;17.50;89.80;;;;;;5039205;28;20040;-81
2021/08/15 05:59:37;;;;;;;17.45;10.88;;;17.50;89.80;;;;;;5069014;28;20079;-83
2021/08/15 06:02:03;;;;;;;21.00;10.90;;;17.60;89.80;;;;;;5046562;28;20025;-81
2021/08/15 06:04:29;;;;;;;18.10;11.10;;;17.70;89.70;;;;;;5071277;28;20020;-81
2021/08/15 06:06:55;;;;;;;17.98;10.20;;;17.70;89.60;;;;;;5061848;28;20762;-81
2021/08/15 06:09:20;;;;;;;18.48;9.93;;;17.90;89.50;;;;;;5064198;28;20039;-81
2021/08/15 06:11:46;;;;;;;22.85;10.23;;;17.90;89.30;;;;;;5065142;28;20561;-82
2021/08/15 06:14:14;;;;;;;18.17;10.32;;;18.00;89.20;;;;;;5060316;28;20072;-82
2021/08/15 06:16:39;;;;;;;18.25;10.13;;;18.00;89.20;;;;;;5044581;28;20367;-81
2021/08/15 06:19:05;;;;;;;16.02;9.27;;;18.10;89.80;;;;;;5059118;28;20157;-82
2021/08/15 06:21:31;;;;;;;18.08;9.85;;;18.20;89.00;;;;;;5038433;28;20032;-83
2021/08/15 06:23:56;;;;;;;20.27;10.23;;;18.30;88.90;;;;;;5030275;28;20503;-83
2021/08/15 06:26:22;;;;;;;19.40;9.52;;;18.40;88.80;;;;;;5061894;28;20045;-83
2021/08/15 06:28:48;;;;;;;15.45;9.00;;;18.60;88.50;;;;;;5071014;28;20029;-81
2021/08/15 06:31:14;;;;;;;16.17;9.13;;;18.60;88.20;;;;;;5099106;28;20021;-82
2021/08/15 06:33:39;;;;;;;22.23;9.43;;;18.70;87.90;;;;;;5063778;28;20030;-81
2021/08/15 06:36:05;;;;;;;18.85;9.38;;;18.70;88.00;;;;;;5114135;28;20080;-82
2021/08/15 06:38:31;;;;;;;15.05;8.60;;;18.80;88.10;;;;;;5072641;28;20111;-82
2021/08/15 06:40:57;;;;;;;15.90;8.20;;;18.80;87.80;;;;;;5070958;28;20689;-82
2021/08/15 06:43:23;;;;;;;13.68;8.30;;;18.90;87.50;;;;;;5062190;28;20035;-82
2021/08/15 06:45:49;;;;;;;16.50;9.13;;;19.00;87.40;;;;;;5061194;28;20048;-82
2021/08/15 06:48:14;;;;;;;16.65;8.02;;;19.10;87.60;;;;;;5049218;28;20024;-82
2021/08/15 06:50:40;;;;;;;14.25;8.40;;;19.10;87.40;;;;;;5084642;28;20073;-82
2021/08/15 06:53:06;;;;;;;15.48;8.05;;;19.20;87.00;;;;;;5086843;28;20425;-81
2021/08/15 06:55:32;;;;;;;12.52;8.10;;;19.30;86.80;;;;;;5071902;28;20031;-81
2021/08/15 06:57:57;;;;;;;14.13;8.35;;;19.40;86.70;;;;;;5086455;28;20020;-81
2021/08/15 07:00:23;;;;;;;12.82;8.00;;;19.50;86.40;;;;;;5085765;28;20028;-81
2021/08/15 07:02:49;;;;;;;14.95;8.70;;;19.70;86.20;;;;;;5062166;28;20370;-79
2021/08/15 07:05:16;;;;;;;15.60;8.23;;;19.70;85.90;;;;;;5072095;28;20027;-78
2021/08/15 07:07:42;;;;;;;15.40;7.28;;;19.90;85.80;;;;;;5080647;28;20028;-77
2021/08/15 07:10:09;;;;;;;15.48;7.97;;;19.90;85.30;;;;;;5091277;28;20045;-78
2021/08/15 07:12:35;;;;;;;15.20;7.32;;;19.90;85.50;;;;;;5094037;28;20016;-78
2021/08/15 07:15:04;;;;;;;13.48;7.43;;;19.90;85.40;;;;;;5093583;28;20012;-78
2021/08/15 07:17:30;;;;;;;15.45;7.53;;;20.00;85.80;;;;;;5074244;28;20031;-78
2021/08/15 07:19:56;;;;;;;15.88;7.75;;;20.10;84.90;;;;;;5064389;28;20093;-78
2021/08/15 07:22:21;;;;;;;17.42;7.93;;;20.10;85.40;;;;;;5098113;28;20114;-78
2021/08/15 07:24:47;;;;;;;12.68;7.13;;;20.10;85.00;;;;;;5091444;28;20028;-78
2021/08/15 07:27:12;;;;;;;15.52;7.40;;;20.20;85.00;;;;;;5096696;28;20451;-78
2021/08/15 07:29:38;;;;;;;14.73;7.85;;;20.20;84.80;;;;;;5083206;28;20065;-78
2021/08/15 07:32:04;;;;;;;16.77;7.30;;;20.30;84.70;;;;;;5074879;28;20039;-78
2021/08/15 07:34:30;;;;;;;11.88;7.35;;;20.40;84.40;;;;;;5065395;28;20032;-78
2021/08/15 07:36:55;;;;;;;14.65;7.82;;;20.60;83.70;;;;;;5083747;28;20031;-78
2021/08/15 07:39:21;;;;;;;18.85;7.95;;;20.60;82.90;;;;;;5099186;28;20692;-77
2021/08/15 07:41:47;;;;;;;15.93;8.50;;;20.50;83.00;;;;;;5059431;28;20431;-77
2021/08/15 07:44:12;;;;;;;16.83;7.30;;;20.60;83.10;;;;;;5063588;28;20032;-75
2021/08/15 07:46:38;;;;;;;12.82;7.13;;;20.70;82.90;;;;;;5086989;28;20145;-77
2021/08/15 07:49:04;;;;;;;13.45;6.75;;;20.90;83.10;;;;;;5069525;28;20069;-77
2021/08/15 07:51:30;;;;;;;18.35;7.05;;;21.00;81.40;;;;;;5083952;28;20044;-78
2021/08/15 07:53:56;;;;;;;13.77;6.55;;;21.20;80.90;;;;;;5088845;28;20031;-78
2021/08/15 07:56:22;;;;;;;12.48;7.20;;;21.30;80.70;;;;;;5089168;28;20032;-78
2021/08/15 07:58:48;;;;;;;12.30;6.20;;;21.20;80.30;;;;;;5104317;28;20043;-77
2021/08/15 08:01:15;;;;;;;13.35;6.32;;;21.10;80.30;;;;;;5088346;28;20020;-77
2021/08/15 08:03:41;;;;;;;11.52;6.78;;;21.00;80.70;;;;;;5106409;28;20028;-77
2021/08/15 08:06:06;;;;;;;15.00;7.43;;;21.00;81.20;;;;;;5060260;28;20365;-77
2021/08/15 08:08:32;;;;;;;14.35;7.22;;;20.90;81.20;;;;;;5059392;28;20024;-78
2021/08/15 08:10:58;;;;;;;12.30;6.88;;;21.00;81.40;;;;;;5098465;28;20073;-78
2021/08/15 08:13:24;;;;;;;16.27;6.85;;;21.10;81.30;;;;;;5098070;28;20049;-79
2021/08/15 08:15:50;;;;;;;13.48;6.38;;;21.20;80.50;;;;;;5077790;28;20032;-77
2021/08/15 08:18:16;;;;;;;13.35;6.85;;;21.30;80.10;;;;;;5073378;28;20024;-80
2021/08/15 08:20:42;;;;;;;12.43;6.03;;;21.30;79.60;;;;;;5073816;28;20028;-84
2021/08/15 08:23:16;;;;;;;14.70;7.43;;;21.40;79.50;;;;;;5091757;28;20453;-81
2021/08/15 08:25:44;;;;;;;13.43;7.10;;;21.50;78.60;;;;;;5090505;28;20054;-81
2021/08/15 08:28:11;;;;;;;13.45;6.68;;;21.60;78.90;;;;;;5073093;28;20016;-82
2021/08/15 08:30:36;;;;;;;9.23;5.78;;;21.80;78.60;;;;;;5093277;28;20073;-81
2021/08/15 08:33:02;;;;;;;9.02;5.90;;;22.00;77.70;;;;;;5074830;28;20414;-80
2021/08/15 08:35:28;;;;;;;12.98;6.30;;;22.30;76.40;;;;;;5073687;28;20042;-81
2021/08/15 08:37:54;;;;;;;11.00;5.82;;;22.60;74.70;;;;;;5057176;28;20108;-80
2021/08/15 08:40:20;;;;;;;11.52;6.28;;;22.80;73.40;;;;;;5092895;28;20032;-81
2021/08/15 08:42:46;;;;;;;14.07;6.50;;;23.10;72.50;;;;;;5075768;28;20023;-81
2021/08/15 08:45:18;;;;;;;10.82;5.72;;;23.00;71.20;;;;;;5091874;28;20606;-81
2021/08/15 08:47:44;;;;;;;10.30;5.72;;;23.00;70.90;;;;;;5112393;28;20019;-81
2021/08/15 08:50:11;;;;;;;10.45;5.93;;;23.00;70.50;;;;;;5061312;28;20545;-80
2021/08/15 08:52:37;;;;;;;11.32;5.35;;;23.00;70.60;;;;;;5077564;28;20101;-82
2021/08/15 08:55:04;;;;;;;13.20;5.30;;;23.00;70.90;;;;;;5083216;28;20479;-80
2021/08/15 08:57:30;;;;;;;14.98;5.55;;;23.10;70.40;;;;;;5069997;28;20040;-81
2021/08/15 08:59:56;;;;;;;14.82;6.10;;;23.20;70.70;;;;;;5091607;28;20500;-81
2021/08/15 09:02:22;;;;;;;10.05;5.63;;;23.30;69.10;;;;;;5092855;28;20027;-81
2021/08/15 09:04:47;;;;;;;10.23;5.07;;;23.50;68.00;;;;;;5065499;28;20036;-80
2021/08/15 09:07:15;;;;;;;10.32;5.05;;;23.80;66.90;;;;;;5108537;28;20018;-81
2021/08/15 09:09:57;;;;;;;6.55;4.25;;;24.00;66.40;;;;;;5116313;28;20030;-81
2021/08/15 09:12:44;;;;;;;10.90;4.65;;;24.10;64.40;;;;;;5107366;28;20012;-81
2021/08/15 09:15:15;;;;;;;9.73;5.53;;;24.20;64.40;;;;;;5098263;28;20746;-83
2021/08/15 09:17:42;;;;;;;10.82;4.85;;;24.20;63.80;;;;;;5111560;28;20414;-82
2021/08/15 09:20:10;;;;;;;10.10;4.50;;;24.30;65.10;;;;;;5115579;28;20020;-82
2021/08/15 09:22:37;;;;;;;9.85;4.97;;;24.40;63.70;;;;;;5097909;28;20093;-81
2021/08/15 09:25:20;;;;;;;9.15;4.50;;;24.40;63.80;;;;;;5116179;28;20028;-82
2021/08/15 09:27:51;;;;;;;10.35;4.65;;;24.50;64.40;;;;;;5093716;28;20396;-82
2021/08/15 09:30:17;;;;;;;8.32;4.25;;;24.60;64.40;;;;;;5115756;28;20020;-82
2021/08/15 09:32:45;;;;;;;10.27;4.22;;;24.70;63.40;;;;;;5075739;28;20027;-84
2021/08/15 09:35:16;;;;;;;10.52;4.78;;;24.80;63.40;;;;;;5090346;28;20066;-84
2021/08/15 09:37:42;;;;;;;6.15;4.60;;;25.00;61.20;;;;;;5087520;28;20031;-83
2021/08/15 09:40:24;;;;;;;15.27;4.97;;;25.00;61.00;;;;;;5111889;28;20033;-81
2021/08/15 09:42:50;;;;;;;8.48;4.07;;;25.00;61.40;;;;;;5088372;28;20024;-83
2021/08/15 09:45:31;;;;;;;13.02;5.05;;;24.90;62.10;;;;;;5091377;28;20448;-80
2021/08/15 09:47:56;;;;;;;19.83;4.10;;;24.80;62.80;;;;;;5103733;28;20140;-78
2021/08/15 09:50:23;;;;;;;11.93;3.85;;;24.70;64.20;;;;;;5079700;28;20485;-81
2021/08/15 09:52:49;;;;;;;7.82;4.10;;;24.70;64.50;;;;;;5059997;28;20024;-80
2021/08/15 09:55:16;;;;;;;9.20;3.72;;;24.80;63.70;;;;;;5097841;28;20027;-84
2021/08/15 09:57:42;;;;;;;10.10;3.95;;;25.00;64.00;;;;;;5067936;28;20031;-86
2021/08/15 10:00:20;;;;;;;8.98;3.92;;;25.20;63.40;;;;;;5085013;28;20058;-82
2021/08/15 10:02:47;;;;;;;8.77;3.88;;;25.50;62.80;;;;;;5098231;28;20020;-81
2021/08/15 10:05:13;;;;;;;7.95;3.90;;;25.60;61.70;;;;;;5099009;28;20032;-80
2021/08/15 10:07:40;;;;;;;7.72;3.72;;;25.80;61.90;;;;;;5105000;28;20068;-82
2021/08/15 10:10:06;;;;;;;10.20;4.10;;;25.90;62.00;;;;;;5095855;28;20028;-83
2021/08/15 10:12:33;;;;;;;7.15;3.60;;;26.00;61.60;;;;;;5085115;28;20033;-81
2021/08/15 10:14:59;;;;;;;8.35;3.63;;;26.10;61.10;;;;;;5069327;28;20081;-81
2021/08/15 10:17:29;;;;;;;8.23;3.85;;;26.20;61.40;;;;;;5069413;28;21087;-83
2021/08/15 10:19:59;;;;;;;6.78;3.58;;;26.40;59.70;;;;;;5107283;28;21003;-85
2021/08/15 10:22:33;;;;;;;10.45;3.75;;;26.50;59.70;;;;;;5094788;28;20024;-81
2021/08/15 10:25:04;;;;;;;7.85;3.50;;;26.50;58.90;;;;;;5092583;28;20492;-78
2021/08/15 10:27:39;;;;;;;7.43;3.67;;;26.60;60.10;;;;;;5085722;28;20044;-81
2021/08/15 10:30:31;;;;;;;5.57;3.55;;;26.70;59.60;;;;;;5097050;28;20022;-83
2021/08/15 10:32:56;;;;;;;7.85;3.63;;;26.80;59.60;;;;;;5057432;28;20039;-80
2021/08/15 10:35:23;;;;;;;8.00;3.63;;;26.90;58.40;;;;;;5109790;28;20027;-82
2021/08/15 10:37:54;;;;;;;9.18;3.80;;;27.00;58.00;;;;;;5093026;28;20016;-82
2021/08/15 10:40:38;;;;;;;9.65;3.78;;;27.00;58.40;;;;;;5070234;28;20028;-80
2021/08/15 10:43:05;;;;;;;10.15;3.78;;;27.10;58.90;;;;;;5073727;28;20028;-80
2021/08/15 10:45:31;;;;;;;9.15;3.25;;;27.20;58.70;;;;;;5076247;28;20020;-82
2021/08/15 10:48:09;;;;;;;6.15;3.40;;;27.30;58.20;;;;;;5089862;28;20024;-81
2021/08/15 10:50:43;;;;;;;9.60;3.83;;;27.40;58.00;;;;;;5065761;28;20078;-81
2021/08/15 10:53:29;;;;;;;5.90;3.33;;;27.40;58.10;;;;;;5112803;28;20031;-81
2021/08/15 10:56:02;;;;;;;8.82;3.67;;;27.50;57.50;;;;;;5064303;28;20123;-82
2021/08/15 10:58:38;;;;;;;6.60;3.75;;;27.50;56.60;;;;;;5064039;28;20043;-80
2021/08/15 11:01:44;;;;;;;8.48;3.50;;;27.50;56.80;;;;;;5090033;28;20031;-82
2021/08/15 11:04:30;;;;;;;7.50;3.67;;;27.50;57.30;;;;;;5063013;28;20032;-82
2021/08/15 11:06:57;;;;;;;14.70;4.05;;;27.60;57.30;;;;;;5070662;28;20028;-81
2021/08/15 11:09:22;;;;;;;8.43;3.30;;;27.60;57.00;;;;;;5053831;28;20028;-82
2021/08/15 11:12:07;;;;;;;8.23;3.35;;;27.70;57.40;;;;;;5069170;28;20024;-83
2021/08/15 11:14:33;;;;;;;7.70;3.60;;;27.70;56.60;;;;;;5089590;28;20023;-82
2021/08/15 11:17:08;;;;;;;7.45;3.28;;;27.70;56.70;;;;;;5057632;28;20493;-82
2021/08/15 11:19:34;;;;;;;10.45;4.25;;;27.70;56.60;;;;;;5075580;28;20472;-82
2021/08/15 11:22:10;;;;;;;7.97;3.00;;;27.60;56.10;;;;;;5096667;28;20024;-82
2021/08/15 11:24:45;;;;;;;7.47;3.38;;;27.60;55.70;;;;;;5068084;28;20056;-83
2021/08/15 11:27:32;;;;;;;11.65;3.30;;;27.70;56.20;;;;;;5062502;28;20052;-83
2021/08/15 11:30:05;;;;;;;9.07;3.70;;;27.90;56.60;;;;;;5070805;28;20028;-81
2021/08/15 11:32:32;;;;;;;9.95;3.92;;;28.00;55.60;;;;;;5085653;28;20495;-81
2021/08/15 11:35:08;;;;;;;5.45;3.05;;;28.20;55.90;;;;;;5083834;28;20105;-81
2021/08/15 11:37:37;;;;;;;8.07;3.40;;;28.30;55.30;;;;;;5107009;28;20053;-83
2021/08/15 11:40:19;;;;;;;9.85;3.72;;;28.50;55.80;;;;;;5089121;28;20131;-80
2021/08/15 11:43:15;;;;;;;5.75;3.38;;;28.50;54.80;;;;;;5085657;28;20388;-82
2021/08/15 11:45:51;;;;;;;9.98;3.22;;;28.40;53.60;;;;;;5077607;28;20123;-83
2021/08/15 11:48:22;;;;;;;7.68;3.30;;;28.40;54.30;;;;;;5114351;28;20487;-84
2021/08/15 11:50:50;;;;;;;9.48;3.70;;;28.40;54.80;;;;;;5079537;28;20123;-84
2021/08/15 11:53:23;;;;;;;8.57;4.03;;;28.40;54.80;;;;;;5098897;28;20008;-83
2021/08/15 11:55:50;;;;;;;9.43;3.63;;;28.40;55.10;;;;;;5065489;28;20060;-82
2021/08/15 11:58:15;;;;;;;12.65;3.42;;;28.40;53.30;;;;;;5088527;28;20028;-81
2021/08/15 12:00:41;;;;;;;5.90;3.50;;;28.30;53.20;;;;;;5073855;28;20063;-82
2021/08/15 12:03:26;;;;;;;9.15;3.95;;;28.40;53.00;;;;;;5096223;28;20032;-81
2021/08/15 12:05:55;;;;;;;11.15;3.70;;;28.40;52.60;;;;;;5096166;28;20065;-81
2021/08/15 12:08:32;;;;;;;7.18;3.25;;;28.40;53.80;;;;;;5093580;28;20427;-84
2021/08/15 12:10:58;;;;;;;9.43;3.90;;;28.40;54.30;;;;;;5070377;28;20039;-83
2021/08/15 12:13:37;;;;;;;5.30;3.20;;;28.50;53.40;;;;;;5092567;28;20020;-82
2021/08/15 12:16:02;;;;;;;9.38;3.70;;;28.60;52.80;;;;;;5101867;28;20029;-81
2021/08/15 12:18:34;;;;;;;7.70;3.45;;;28.60;52.70;;;;;;5090134;28;20040;-83
2021/08/15 12:21:03;;;;;;;6.85;3.38;;;28.60;52.50;;;;;;5099016;28;20020;-84
2021/08/15 12:23:31;;;;;;;6.43;3.17;;;28.50;52.70;;;;;;5099414;28;20028;-85
2021/08/15 12:26:00;;;;;;;7.30;3.60;;;28.40;53.10;;;;;;5094260;28;20077;-84
2021/08/15 12:28:33;;;;;;;7.30;3.30;;;28.40;53.00;;;;;;5110337;28;20094;-86
2021/08/15 12:31:28;;;;;;;6.63;3.60;;;28.40;53.40;;;;;;5102028;28;20392;-82
2021/08/15 12:34:11;;;;;;;8.68;3.85;;;28.50;53.60;;;;;;5102535;28;20024;-80
2021/08/15 12:36:49;;;;;;;8.30;3.80;;;28.50;53.10;;;;;;5102154;28;20028;-83